createdAt,value
2022-08-07T00:00:26.893Z,96.08
2022-08-07T00:02:35.254Z,96.47
2022-08-07T00:02:40.511Z,97.09
2022-08-07T00:03:26.744Z,96.61
2022-08-07T00:04:26.726Z,96.56
2022-08-07T00:05:26.657Z,96.27
2022-08-07T00:06:33.084Z,96.56
2022-08-07T00:07:27.566Z,96.75
2022-08-07T00:08:26.538Z,96.66
2022-08-07T00:09:35.498Z,96.75
2022-08-07T00:10:30.639Z,96.47
2022-08-07T00:11:30.176Z,96.18
2022-08-07T00:12:26.391Z,96.37
2022-08-07T00:13:26.900Z,96.37
2022-08-07T00:14:30.028Z,96.75
2022-08-07T00:15:26.248Z,96.27
2022-08-07T00:16:27.938Z,96.66
2022-08-07T00:17:26.433Z,96.75
2022-08-07T00:18:26.139Z,96.85
2022-08-07T00:19:59.989Z,96.37
2022-08-07T00:20:29.711Z,96.75
2022-08-07T00:21:55.437Z,97.52
2022-08-07T00:22:35.309Z,97.42
2022-08-07T00:23:28.441Z,97.42
2022-08-07T00:24:25.886Z,97.42
2022-08-07T00:25:25.833Z,97.33
2022-08-07T00:26:49.127Z,97.42
2022-08-07T00:27:25.916Z,97.71
2022-08-07T00:28:25.710Z,97.81
2022-08-07T00:29:25.671Z,97.33
2022-08-07T00:30:27.280Z,97.61
2022-08-07T00:31:25.588Z,96.85
2022-08-07T00:32:28.393Z,97.61
2022-08-07T00:33:25.512Z,97.52
2022-08-07T00:34:25.463Z,97.91
2022-08-07T00:35:25.424Z,97.81
2022-08-07T00:36:25.378Z,97.81
2022-08-07T00:37:25.371Z,97.81
2022-08-07T00:38:31.259Z,97.52
2022-08-07T00:39:25.283Z,97.52
2022-08-07T00:40:39.604Z,97.52
2022-08-07T00:41:25.189Z,97.52
2022-08-07T00:42:29.056Z,97.52
2022-08-07T00:44:00.412Z,97.52
2022-08-07T00:44:26.439Z,97.52
2022-08-07T00:45:25.009Z,97.71
2022-08-07T00:46:24.967Z,97.52
2022-08-07T00:48:07.935Z,96.37
2022-08-07T00:48:30.949Z,96.56
2022-08-07T00:50:20.892Z,96.37
2022-08-07T00:50:46.608Z,96.75
2022-08-07T00:51:27.852Z,96.47
2022-08-07T00:52:24.714Z,96.85
2022-08-07T00:53:24.689Z,97.04
2022-08-07T00:54:24.651Z,96.94
2022-08-07T00:55:25.553Z,97.14
2022-08-07T00:56:30.219Z,96.80
2022-08-07T00:57:25.971Z,96.70
2022-08-07T00:58:24.468Z,96.70
2022-08-07T00:59:35.884Z,96.51
2022-08-07T01:00:24.414Z,96.42
2022-08-07T01:01:24.440Z,96.99
2022-08-07T01:02:29.370Z,97.47
2022-08-07T01:03:56.617Z,97.66
2022-08-07T01:04:24.765Z,97.66
2022-08-07T01:05:24.667Z,97.76
2022-08-07T01:06:24.162Z,97.38
2022-08-07T01:07:24.100Z,97.56
2022-08-07T01:08:24.056Z,97.95
2022-08-07T01:10:03.999Z,97.86
2022-08-07T01:10:23.975Z,97.95
2022-08-07T01:12:09.539Z,98.05
2022-08-07T01:12:29.973Z,97.95
2022-08-07T01:13:23.848Z,97.95
2022-08-07T01:14:28.147Z,98.72
2022-08-07T01:16:00.712Z,98.05
2022-08-07T01:16:30.526Z,97.95
2022-08-07T01:17:23.726Z,97.86
2022-08-07T01:18:24.779Z,97.95
2022-08-07T01:19:23.673Z,98.14
2022-08-07T01:20:23.556Z,97.95
2022-08-07T01:21:25.773Z,97.76
2022-08-07T01:22:29.167Z,97.86
2022-08-07T01:23:34.686Z,97.66
2022-08-07T01:24:23.401Z,97.47
2022-08-07T01:25:40.514Z,97.56
2022-08-07T01:26:23.304Z,97.56
2022-08-07T01:27:23.267Z,97.86
2022-08-07T01:28:23.221Z,97.56
2022-08-07T01:29:23.212Z,97.86
2022-08-07T01:30:27.242Z,97.76
2022-08-07T01:31:23.155Z,98.53
2022-08-07T01:32:23.147Z,98.33
2022-08-07T01:33:23.018Z,98.53
2022-08-07T01:34:30.079Z,98.24
2022-08-07T01:35:24.350Z,98.72
2022-08-07T01:36:22.892Z,98.82
2022-08-07T01:37:22.876Z,98.33
2022-08-07T01:38:25.249Z,98.82
2022-08-07T01:39:22.839Z,98.33
2022-08-07T01:40:22.737Z,98.43
2022-08-07T01:41:26.117Z,98.53
2022-08-07T01:42:39.658Z,98.05
2022-08-07T01:43:22.604Z,98.53
2022-08-07T01:44:22.562Z,98.53
2022-08-07T01:45:23.070Z,98.24
2022-08-07T01:46:22.478Z,98.24
2022-08-07T01:48:18.400Z,98.53
2022-08-07T01:48:30.208Z,98.33
2022-08-07T01:49:22.425Z,98.33
2022-08-07T01:50:22.674Z,98.24
2022-08-07T01:51:58.723Z,98.72
2022-08-07T01:52:22.230Z,98.53
2022-08-07T01:54:09.206Z,98.62
2022-08-07T01:54:36.872Z,98.33
2022-08-07T01:55:24.129Z,98.24
2022-08-07T01:56:22.080Z,98.53
2022-08-07T01:57:24.738Z,98.62
2022-08-07T01:58:27.755Z,98.43
2022-08-07T01:59:21.937Z,98.72
2022-08-07T02:00:28.924Z,98.53
2022-08-07T02:01:25.577Z,98.53
2022-08-07T02:02:32.834Z,98.33
2022-08-07T02:03:26.560Z,98.43
2022-08-07T02:04:21.779Z,98.62
2022-08-07T02:05:47.782Z,98.72
2022-08-07T02:06:32.162Z,98.53
2022-08-07T02:07:21.604Z,97.76
2022-08-07T02:08:23.829Z,97.86
2022-08-07T02:09:33.792Z,97.95
2022-08-07T02:10:21.482Z,98.72
2022-08-07T02:11:43.413Z,98.33
2022-08-07T02:12:22.217Z,98.43
2022-08-07T02:13:21.366Z,98.62
2022-08-07T02:14:35.704Z,98.14
2022-08-07T02:15:21.284Z,98.14
2022-08-07T02:16:28.621Z,98.43
2022-08-07T02:17:27.726Z,98.53
2022-08-07T02:18:21.144Z,98.53
2022-08-07T02:20:07.835Z,98.14
2022-08-07T02:20:23.746Z,98.53
2022-08-07T02:21:21.024Z,98.43
2022-08-07T02:22:21.027Z,97.95
2022-08-07T02:23:23.955Z,97.86
2022-08-07T02:24:20.897Z,98.72
2022-08-07T02:25:20.861Z,98.62
2022-08-07T02:26:33.131Z,98.53
2022-08-07T02:27:20.806Z,98.53
2022-08-07T02:28:24.588Z,98.43
2022-08-07T02:29:21.880Z,98.53
2022-08-07T02:30:20.650Z,98.48
2022-08-07T02:31:28.855Z,98.62
2022-08-07T02:32:23.178Z,98.43
2022-08-07T02:33:20.525Z,98.38
2022-08-07T02:34:20.498Z,98.10
2022-08-07T02:35:20.495Z,98.38
2022-08-07T02:36:28.807Z,98.62
2022-08-07T02:37:20.375Z,98.48
2022-08-07T02:38:22.771Z,98.14
2022-08-07T02:39:43.345Z,98.48
2022-08-07T02:40:30.620Z,98.72
2022-08-07T02:41:21.743Z,98.28
2022-08-07T02:42:20.146Z,98.67
2022-08-07T02:43:20.106Z,98.38
2022-08-07T02:44:20.065Z,98.19
2022-08-07T02:45:59.447Z,97.81
2022-08-07T02:46:20.000Z,97.86
2022-08-07T02:47:23.609Z,98.05
2022-08-07T02:48:19.894Z,97.90
2022-08-07T02:49:28.798Z,98.05
2022-08-07T02:50:30.775Z,97.90
2022-08-07T02:51:41.959Z,97.81
2022-08-07T02:52:21.450Z,97.95
2022-08-07T02:53:19.689Z,97.76
2022-08-07T02:54:19.716Z,98.05
2022-08-07T02:55:27.635Z,97.81
2022-08-07T02:56:21.879Z,97.47
2022-08-07T02:57:19.936Z,98.14
2022-08-07T02:58:21.627Z,97.81
2022-08-07T02:59:24.150Z,97.81
2022-08-07T03:00:19.398Z,98.10
2022-08-07T03:01:36.612Z,98.19
2022-08-07T03:02:19.337Z,98.10
2022-08-07T03:03:20.947Z,97.81
2022-08-07T03:04:19.232Z,97.90
2022-08-07T03:05:20.789Z,97.81
2022-08-07T03:06:26.221Z,97.81
2022-08-07T03:07:21.567Z,97.61
2022-08-07T03:08:19.255Z,97.90
2022-08-07T03:09:41.864Z,98.48
2022-08-07T03:10:18.982Z,98.48
2022-08-07T03:11:20.039Z,98.48
2022-08-07T03:12:22.562Z,98.67
2022-08-07T03:13:20.147Z,98.19
2022-08-07T03:14:18.819Z,98.62
2022-08-07T03:15:30.303Z,98.48
2022-08-07T03:16:22.982Z,98.48
2022-08-07T03:17:18.846Z,97.76
2022-08-07T03:18:20.131Z,98.14
2022-08-07T03:19:18.869Z,97.86
2022-08-07T03:20:18.563Z,97.38
2022-08-07T03:21:19.071Z,97.56
2022-08-07T03:22:18.803Z,97.95
2022-08-07T03:23:19.240Z,97.66
2022-08-07T03:24:27.451Z,97.47
2022-08-07T03:25:21.046Z,96.99
2022-08-07T03:26:26.049Z,96.27
2022-08-07T03:27:30.286Z,96.66
2022-08-07T03:28:38.443Z,96.94
2022-08-07T03:29:18.190Z,96.75
2022-08-07T03:30:18.332Z,96.75
2022-08-07T03:31:18.105Z,96.47
2022-08-07T03:32:18.147Z,96.56
2022-08-07T03:33:18.030Z,96.56
2022-08-07T03:34:18.612Z,96.18
2022-08-07T03:35:26.155Z,96.37
2022-08-07T03:36:18.021Z,96.66
2022-08-07T03:37:18.179Z,96.18
2022-08-07T03:38:17.820Z,96.37
2022-08-07T03:39:18.180Z,96.61
2022-08-07T03:40:18.050Z,95.94
2022-08-07T03:41:17.695Z,95.55
2022-08-07T03:42:17.873Z,95.84
2022-08-07T03:43:17.868Z,95.84
2022-08-07T03:44:31.938Z,95.75
2022-08-07T03:45:30.391Z,95.45
2022-08-07T03:46:18.400Z,95.75
2022-08-07T03:47:17.641Z,95.26
2022-08-07T03:48:17.403Z,95.75
2022-08-07T03:49:17.444Z,95.26
2022-08-07T03:50:17.324Z,95.26
2022-08-07T03:51:17.278Z,95.26
2022-08-07T03:52:22.594Z,95.17
2022-08-07T03:53:17.199Z,95.07
2022-08-07T03:54:36.365Z,94.88
2022-08-07T03:55:17.289Z,94.88
2022-08-07T03:56:17.195Z,94.59
2022-08-07T03:58:35.251Z,94.83
2022-08-07T03:59:07.401Z,94.35
2022-08-07T03:59:17.111Z,94.54
2022-08-07T04:00:17.113Z,95.21
2022-08-07T04:01:16.935Z,94.54
2022-08-07T04:02:16.971Z,94.83
2022-08-07T04:03:16.783Z,94.54
2022-08-07T04:04:17.362Z,94.35
2022-08-07T04:05:16.704Z,93.96
2022-08-07T04:06:37.008Z,94.54
2022-08-07T04:07:17.666Z,94.06
2022-08-07T04:08:18.383Z,94.06
2022-08-07T04:09:16.770Z,93.39
2022-08-07T04:10:19.502Z,93.29
2022-08-07T04:12:24.221Z,93.19
2022-08-07T04:12:25.274Z,93.24
2022-08-07T04:13:16.373Z,93.39
2022-08-07T04:14:38.791Z,93.29
2022-08-07T04:15:16.563Z,93.24
2022-08-07T04:16:30.160Z,92.96
2022-08-07T04:17:19.855Z,93.19
2022-08-07T04:18:56.363Z,93.24
2022-08-07T04:19:16.508Z,93.44
2022-08-07T04:20:16.092Z,93.19
2022-08-07T04:21:16.547Z,93.19
2022-08-07T04:22:17.795Z,93.44
2022-08-07T04:23:19.313Z,93.05
2022-08-07T04:24:30.863Z,93.05
2022-08-07T04:25:15.885Z,92.96
2022-08-07T04:26:16.816Z,93.24
2022-08-07T04:27:20.380Z,92.19
2022-08-07T04:28:15.761Z,92.19
2022-08-07T04:29:15.891Z,92.47
2022-08-07T04:30:21.699Z,92.29
2022-08-07T04:31:20.048Z,92.57
2022-08-07T04:32:15.668Z,92.09
2022-08-07T04:33:15.961Z,91.80
2022-08-07T04:34:16.622Z,92.57
2022-08-07T04:35:15.815Z,92.57
2022-08-07T04:36:15.533Z,92.19
2022-08-07T04:37:20.579Z,91.80
2022-08-07T04:38:15.550Z,92.47
2022-08-07T04:39:15.334Z,92.38
2022-08-07T04:40:15.355Z,92.38
2022-08-07T04:41:18.127Z,92.19
2022-08-07T04:42:15.197Z,92.29
2022-08-07T04:43:15.431Z,91.85
2022-08-07T04:44:19.129Z,91.94
2022-08-07T04:45:16.301Z,92.47
2022-08-07T04:46:25.759Z,91.85
2022-08-07T04:47:23.472Z,91.66
2022-08-07T04:48:15.536Z,91.94
2022-08-07T04:49:24.247Z,91.85
2022-08-07T04:50:14.865Z,91.75
2022-08-07T04:51:15.033Z,91.36
2022-08-07T04:52:14.802Z,91.17
2022-08-07T04:53:16.646Z,91.08
2022-08-07T04:54:14.843Z,91.36
2022-08-07T04:55:15.301Z,91.27
2022-08-07T04:58:09.904Z,91.08
2022-08-07T04:58:12.968Z,91.66
2022-08-07T04:58:42.305Z,91.08
2022-08-07T05:00:10.782Z,90.89
2022-08-07T05:00:19.032Z,90.79
2022-08-07T05:01:14.425Z,89.87
2022-08-07T05:02:16.955Z,89.87
2022-08-07T05:03:17.124Z,90.16
2022-08-07T05:04:17.372Z,89.68
2022-08-07T05:05:53.176Z,89.78
2022-08-07T05:06:16.455Z,89.29
2022-08-07T05:07:20.453Z,89.01
2022-08-07T05:08:14.535Z,89.29
2022-08-07T05:09:14.090Z,88.57
2022-08-07T05:10:14.046Z,89.15
2022-08-07T05:11:19.497Z,89.54
2022-08-07T05:12:15.566Z,89.44
2022-08-07T05:14:53.678Z,89.49
2022-08-07T05:14:55.860Z,89.49
2022-08-07T05:15:13.848Z,89.01
2022-08-07T05:16:13.806Z,89.29
2022-08-07T05:17:13.986Z,89.01
2022-08-07T05:18:13.722Z,88.62
2022-08-07T05:19:13.800Z,89.10
2022-08-07T05:20:13.856Z,88.43
2022-08-07T05:21:14.587Z,88.43
2022-08-07T05:22:13.561Z,88.04
2022-08-07T05:23:29.092Z,88.24
2022-08-07T05:24:13.478Z,88.24
2022-08-07T05:25:25.945Z,87.76
2022-08-07T05:26:18.817Z,87.66
2022-08-07T05:27:14.549Z,87.42
2022-08-07T05:28:19.985Z,87.95
2022-08-07T05:29:13.278Z,88.04
2022-08-07T05:30:13.252Z,87.95
2022-08-07T05:31:14.666Z,88.33
2022-08-07T05:32:13.173Z,88.24
2022-08-07T05:33:13.114Z,87.95
2022-08-07T05:34:13.075Z,88.14
2022-08-07T05:35:13.034Z,88.04
2022-08-07T05:36:22.628Z,88.04
2022-08-07T05:37:12.948Z,87.95
2022-08-07T05:38:12.915Z,88.14
2022-08-07T05:40:13.900Z,87.85
2022-08-07T05:40:18.702Z,86.89
2022-08-07T05:41:16.775Z,87.08
2022-08-07T05:42:12.900Z,87.18
2022-08-07T05:43:12.709Z,87.08
2022-08-07T05:44:13.008Z,87.08
2022-08-07T05:45:25.987Z,87.12
2022-08-07T05:46:12.594Z,86.74
2022-08-07T05:47:18.547Z,86.02
2022-08-07T05:48:12.507Z,86.60
2022-08-07T05:49:13.085Z,86.60
2022-08-07T05:50:12.432Z,86.74
2022-08-07T05:51:12.384Z,86.55
2022-08-07T05:52:12.346Z,86.74
2022-08-07T05:54:13.791Z,86.35
2022-08-07T05:54:31.513Z,85.87
2022-08-07T05:55:12.226Z,85.97
2022-08-07T05:56:12.509Z,85.49
2022-08-07T05:57:12.151Z,85.58
2022-08-07T05:58:12.109Z,85.30
2022-08-07T05:59:12.078Z,84.76
2022-08-07T06:03:56.438Z,84.66
2022-08-07T06:04:50.783Z,84.47
2022-08-07T06:05:48.853Z,84.38
2022-08-07T06:06:56.582Z,84.95
2022-08-07T06:08:14.572Z,84.47
2022-08-07T06:08:48.020Z,84.28
2022-08-07T06:10:03.947Z,84.95
2022-08-07T06:10:51.217Z,84.09
2022-08-07T06:11:47.851Z,84.18
2022-08-07T06:12:47.809Z,84.18
2022-08-07T06:14:13.255Z,84.28
2022-08-07T06:14:49.572Z,83.99
2022-08-07T06:15:49.982Z,84.18
2022-08-07T06:16:50.756Z,83.89
2022-08-07T06:17:50.602Z,84.80
2022-08-07T06:18:51.779Z,84.22
2022-08-07T06:20:03.456Z,83.64
2022-08-07T06:20:50.917Z,83.94
2022-08-07T06:22:15.157Z,83.26
2022-08-07T06:22:50.749Z,83.07
2022-08-07T06:24:52.200Z,83.26
2022-08-07T06:24:57.020Z,82.78
2022-08-07T06:25:54.004Z,82.39
2022-08-07T06:26:55.196Z,82.39
2022-08-07T06:28:01.102Z,82.20
2022-08-07T06:28:47.185Z,81.76
2022-08-07T06:29:47.131Z,81.95
2022-08-07T06:30:47.087Z,81.27
2022-08-07T06:31:50.475Z,81.47
2022-08-07T06:32:47.008Z,81.57
2022-08-07T06:33:46.976Z,80.54
2022-08-07T06:34:46.959Z,80.74
2022-08-07T06:36:06.104Z,80.16
2022-08-07T06:36:46.847Z,79.39
2022-08-07T06:37:47.080Z,79.97
2022-08-07T06:38:59.161Z,79.39
2022-08-07T06:40:16.203Z,79.19
2022-08-07T06:40:46.752Z,79.39
2022-08-07T06:42:02.284Z,79.39
2022-08-07T06:42:46.709Z,78.81
2022-08-07T06:44:01.355Z,78.91
2022-08-07T06:44:51.261Z,78.52
2022-08-07T06:45:46.497Z,78.85
2022-08-07T06:46:53.279Z,78.61
2022-08-07T06:47:57.239Z,78.08
2022-08-07T06:48:46.373Z,78.75
2022-08-07T06:49:51.920Z,77.88
2022-08-07T06:50:47.772Z,77.69
2022-08-07T06:51:49.510Z,78.08
2022-08-07T06:52:46.220Z,77.69
2022-08-07T06:55:27.461Z,77.50
2022-08-07T06:55:33.997Z,76.92
2022-08-07T06:55:53.706Z,76.82
2022-08-07T06:56:49.367Z,77.11
2022-08-07T06:57:50.028Z,77.01
2022-08-07T07:00:12.994Z,77.05
2022-08-07T07:00:13.246Z,76.95
2022-08-07T07:00:45.908Z,76.86
2022-08-07T07:01:50.737Z,76.37
2022-08-07T07:02:54.529Z,75.79
2022-08-07T07:03:48.250Z,75.70
2022-08-07T07:04:55.224Z,75.12
2022-08-07T07:06:02.740Z,75.02
2022-08-07T07:07:00.662Z,75.22
2022-08-07T07:07:59.816Z,75.31
2022-08-07T07:08:46.601Z,75.60
2022-08-07T07:09:45.597Z,75.02
2022-08-07T07:10:47.576Z,75.26
2022-08-07T07:12:08.835Z,74.96
2022-08-07T07:12:48.665Z,74.68
2022-08-07T07:13:58.654Z,74.87
2022-08-07T07:14:45.367Z,75.16
2022-08-07T07:15:45.330Z,75.06
2022-08-07T07:16:50.623Z,74.10
2022-08-07T07:17:45.583Z,73.90
2022-08-07T07:18:48.118Z,74.06
2022-08-07T07:19:55.923Z,74.44
2022-08-07T07:20:45.134Z,74.38
2022-08-07T07:22:12.175Z,74.77
2022-08-07T07:24:05.991Z,74.23
2022-08-07T07:24:06.052Z,74.29
2022-08-07T07:25:02.810Z,73.65
2022-08-07T07:26:33.481Z,73.55
2022-08-07T07:26:52.118Z,73.74
2022-08-07T07:27:56.352Z,73.55
2022-08-07T07:29:39.518Z,73.46
2022-08-07T07:30:08.984Z,72.30
2022-08-07T07:30:44.747Z,72.30
2022-08-07T07:31:46.791Z,72.68
2022-08-07T07:32:44.678Z,72.30
2022-08-07T07:33:44.636Z,72.30
2022-08-07T07:34:44.597Z,72.20
2022-08-07T07:36:04.900Z,72.68
2022-08-07T07:36:47.972Z,72.39
2022-08-07T07:37:49.896Z,72.68
2022-08-07T07:38:46.213Z,72.39
2022-08-07T07:39:52.263Z,72.49
2022-08-07T07:40:44.367Z,72.58
2022-08-07T07:41:50.658Z,72.39
2022-08-07T07:42:50.923Z,72.49
2022-08-07T07:44:14.177Z,72.49
2022-08-07T07:44:44.227Z,72.68
2022-08-07T07:46:39.726Z,72.49
2022-08-07T07:46:55.295Z,72.58
2022-08-07T07:47:52.807Z,72.58
2022-08-07T07:48:44.822Z,72.49
2022-08-07T07:50:32.665Z,72.55
2022-08-07T07:50:43.988Z,72.84
2022-08-07T07:51:57.878Z,72.16
2022-08-07T07:52:43.936Z,72.94
2022-08-07T07:53:51.774Z,72.64
2022-08-07T07:54:50.686Z,72.84
2022-08-07T07:55:54.464Z,72.74
2022-08-07T07:56:43.758Z,72.74
2022-08-07T07:57:53.618Z,72.74
2022-08-07T07:58:43.754Z,72.74
2022-08-07T07:59:52.931Z,72.74
2022-08-07T08:00:43.599Z,72.74
2022-08-07T08:02:03.513Z,72.74
2022-08-07T08:03:05.065Z,72.55
2022-08-07T08:04:11.053Z,73.03
2022-08-07T08:04:43.481Z,72.94
2022-08-07T08:05:53.889Z,73.38
2022-08-07T08:06:50.855Z,73.58
2022-08-07T08:07:51.462Z,74.06
2022-08-07T08:08:43.292Z,73.86
2022-08-07T08:09:52.577Z,73.67
2022-08-07T08:10:43.244Z,73.67
2022-08-07T08:11:59.517Z,73.96
2022-08-07T08:12:52.450Z,74.35
2022-08-07T08:13:53.081Z,74.35
2022-08-07T08:14:43.061Z,74.35
2022-08-07T08:15:57.773Z,74.06
2022-08-07T08:16:50.489Z,74.64
2022-08-07T08:17:57.607Z,73.71
2022-08-07T08:18:42.905Z,73.80
2022-08-07T08:20:18.690Z,73.80
2022-08-07T08:20:43.529Z,73.42
2022-08-07T08:21:55.365Z,73.32
2022-08-07T08:22:54.083Z,73.32
2022-08-07T08:23:42.709Z,73.52
2022-08-07T08:24:45.531Z,73.65
2022-08-07T08:25:49.622Z,72.78
2022-08-07T08:26:42.755Z,72.26
2022-08-07T08:27:43.915Z,72.58
2022-08-07T08:28:43.466Z,72.39
2022-08-07T08:29:54.254Z,71.91
2022-08-07T08:30:42.591Z,71.62
2022-08-07T08:31:59.038Z,71.42
2022-08-07T08:32:42.383Z,71.52
2022-08-07T08:33:42.325Z,71.62
2022-08-07T08:34:42.294Z,71.81
2022-08-07T08:35:47.110Z,71.62
2022-08-07T08:36:42.215Z,71.52
2022-08-07T08:38:00.761Z,71.62
2022-08-07T08:38:42.158Z,71.58
2022-08-07T08:39:54.933Z,72.36
2022-08-07T08:40:43.859Z,72.39
2022-08-07T08:41:58.611Z,72.10
2022-08-07T08:42:41.988Z,71.52
2022-08-07T08:43:43.319Z,71.72
2022-08-07T08:44:45.835Z,71.08
2022-08-07T08:46:00.726Z,70.40
2022-08-07T08:46:44.907Z,69.62
2022-08-07T08:47:52.758Z,68.88
2022-08-07T08:48:41.753Z,68.95
2022-08-07T08:50:02.162Z,69.33
2022-08-07T08:50:41.693Z,69.66
2022-08-07T08:52:00.737Z,69.08
2022-08-07T08:52:53.613Z,69.46
2022-08-07T08:53:41.604Z,68.59
2022-08-07T08:54:41.523Z,68.40
2022-08-07T08:55:54.464Z,68.88
2022-08-07T08:56:47.208Z,68.49
2022-08-07T08:57:41.412Z,67.91
2022-08-07T08:58:41.376Z,68.49
2022-08-07T08:59:42.351Z,68.11
2022-08-07T09:00:42.669Z,68.11
2022-08-07T09:01:44.121Z,68.79
2022-08-07T09:02:41.846Z,68.98
2022-08-07T09:03:49.353Z,68.49
2022-08-07T09:04:41.148Z,68.79
2022-08-07T09:05:41.139Z,68.69
2022-08-07T09:06:42.722Z,69.17
2022-08-07T09:07:46.510Z,68.49
2022-08-07T09:08:40.998Z,68.79
2022-08-07T09:09:40.964Z,68.40
2022-08-07T09:10:44.121Z,68.43
2022-08-07T09:11:51.208Z,68.24
2022-08-07T09:12:40.845Z,67.46
2022-08-07T09:13:40.808Z,67.37
2022-08-07T09:14:40.770Z,66.98
2022-08-07T09:16:22.504Z,67.85
2022-08-07T09:16:40.699Z,67.30
2022-08-07T09:18:00.376Z,67.11
2022-08-07T09:18:40.622Z,67.50
2022-08-07T09:19:51.677Z,66.82
2022-08-07T09:20:40.549Z,67.02
2022-08-07T09:22:22.686Z,66.82
2022-08-07T09:24:33.363Z,66.34
2022-08-07T09:24:33.626Z,66.92
2022-08-07T09:24:59.381Z,66.43
2022-08-07T09:25:40.359Z,66.43
2022-08-07T09:26:40.326Z,66.53
2022-08-07T09:28:00.563Z,65.95
2022-08-07T09:30:02.115Z,65.56
2022-08-07T09:30:03.930Z,65.69
2022-08-07T09:30:40.296Z,65.37
2022-08-07T09:31:40.147Z,65.69
2022-08-07T09:32:40.104Z,65.50
2022-08-07T09:33:53.144Z,65.59
2022-08-07T09:34:40.025Z,64.65
2022-08-07T09:36:04.548Z,65.05
2022-08-07T09:36:43.122Z,64.43
2022-08-07T09:37:53.502Z,64.47
2022-08-07T09:38:39.880Z,64.27
2022-08-07T09:39:54.569Z,64.37
2022-08-07T09:40:39.816Z,64.17
2022-08-07T09:41:43.559Z,63.30
2022-08-07T09:42:39.745Z,63.33
2022-08-07T09:44:03.518Z,63.33
2022-08-07T09:47:49.576Z,63.04
2022-08-07T09:47:50.659Z,62.85
2022-08-07T09:47:51.763Z,63.13
2022-08-07T09:47:56.157Z,62.26
2022-08-07T09:48:50.040Z,62.46
2022-08-07T09:50:00.977Z,62.07
2022-08-07T09:50:39.972Z,62.04
2022-08-07T09:52:15.551Z,63.01
2022-08-07T09:52:39.366Z,63.04
2022-08-07T09:53:42.933Z,63.04
2022-08-07T09:54:39.290Z,62.65
2022-08-07T09:56:04.113Z,62.23
2022-08-07T09:56:39.412Z,63.10
2022-08-07T09:57:46.428Z,62.91
2022-08-07T09:58:42.388Z,62.95
2022-08-07T09:59:46.158Z,62.95
2022-08-07T10:00:39.071Z,62.85
2022-08-07T10:01:52.271Z,62.98
2022-08-07T10:02:38.996Z,62.10
2022-08-07T10:04:07.261Z,62.49
2022-08-07T10:04:38.975Z,61.81
2022-08-07T10:06:01.236Z,61.25
2022-08-07T10:06:38.858Z,60.48
2022-08-07T10:07:53.001Z,60.28
2022-08-07T10:08:38.780Z,60.19
2022-08-07T10:09:58.992Z,60.87
2022-08-07T10:11:07.731Z,60.48
2022-08-07T10:12:01.611Z,60.09
2022-08-07T10:12:39.820Z,60.48
2022-08-07T10:14:01.150Z,59.41
2022-08-07T10:14:38.561Z,60.58
2022-08-07T10:15:44.662Z,60.09
2022-08-07T10:16:38.490Z,60.77
2022-08-07T10:18:03.083Z,60.68
2022-08-07T10:18:38.447Z,60.09
2022-08-07T10:19:38.755Z,59.22
2022-08-07T10:20:38.350Z,60.38
2022-08-07T10:22:14.524Z,60.58
2022-08-07T10:22:38.292Z,59.67
2022-08-07T10:24:05.193Z,59.87
2022-08-07T10:24:39.868Z,60.64
2022-08-07T10:25:42.739Z,60.64
2022-08-07T10:26:38.128Z,60.94
2022-08-07T10:27:46.355Z,61.13
2022-08-07T10:28:38.063Z,60.94
2022-08-07T10:29:43.195Z,61.52
2022-08-07T10:30:38.002Z,61.22
2022-08-07T10:31:38.959Z,60.00
2022-08-07T10:32:53.846Z,60.38
2022-08-07T10:34:13.967Z,60.09
2022-08-07T10:34:37.836Z,60.28
2022-08-07T10:35:53.472Z,60.00
2022-08-07T10:36:37.789Z,59.64
2022-08-07T10:38:00.027Z,59.31
2022-08-07T10:38:48.100Z,59.41
2022-08-07T10:39:41.974Z,60.12
2022-08-07T10:40:37.618Z,59.41
2022-08-07T10:41:47.008Z,58.73
2022-08-07T10:42:37.591Z,59.22
2022-08-07T10:43:37.507Z,59.12
2022-08-07T10:44:38.958Z,59.12
2022-08-07T10:45:44.766Z,59.15
2022-08-07T10:46:37.401Z,59.64
2022-08-07T10:47:53.506Z,59.15
2022-08-07T10:48:37.329Z,59.74
2022-08-07T10:49:48.997Z,59.83
2022-08-07T10:50:37.252Z,59.08
2022-08-07T10:51:57.590Z,58.98
2022-08-07T10:52:37.177Z,58.59
2022-08-07T10:53:44.077Z,58.21
2022-08-07T10:54:37.135Z,57.46
2022-08-07T10:55:38.687Z,57.65
2022-08-07T10:56:37.042Z,57.26
2022-08-07T10:57:37.193Z,56.29
2022-08-07T10:58:40.639Z,56.59
2022-08-07T10:59:37.267Z,57.26
2022-08-07T11:00:43.377Z,56.59
2022-08-07T11:01:51.896Z,57.26
2022-08-07T11:02:38.139Z,57.23
2022-08-07T11:03:37.867Z,57.23
2022-08-07T11:04:37.718Z,56.65
2022-08-07T11:05:51.052Z,56.77
2022-08-07T11:06:36.677Z,56.39
2022-08-07T11:07:59.684Z,56.49
2022-08-07T11:08:36.604Z,57.10
2022-08-07T11:10:09.209Z,57.20
2022-08-07T11:10:37.391Z,56.93
2022-08-07T11:11:37.555Z,54.52
2022-08-07T11:12:36.465Z,53.28
2022-08-07T11:14:42.647Z,52.92
2022-08-07T11:14:43.555Z,51.26
2022-08-07T11:15:36.360Z,51.70
2022-08-07T11:16:36.348Z,50.26
2022-08-07T11:17:43.529Z,49.07
2022-08-07T11:18:36.264Z,47.85
2022-08-07T11:19:36.227Z,46.62
2022-08-07T11:20:36.196Z,44.37
2022-08-07T11:21:42.893Z,43.62
2022-08-07T11:22:46.009Z,43.04
2022-08-07T11:23:36.383Z,42.74
2022-08-07T11:24:36.063Z,42.57
2022-08-07T11:25:42.273Z,42.19
2022-08-07T11:26:38.655Z,40.74
2022-08-07T11:28:02.717Z,40.56
2022-08-07T11:28:35.968Z,39.60
2022-08-07T11:29:41.145Z,38.92
2022-08-07T11:30:41.775Z,38.82
2022-08-07T11:31:35.848Z,38.90
2022-08-07T11:32:35.824Z,39.06
2022-08-07T11:33:58.684Z,39.62
2022-08-07T11:34:35.772Z,40.39
2022-08-07T11:35:35.729Z,41.08
2022-08-07T11:36:35.698Z,41.27
2022-08-07T11:37:38.334Z,41.94
2022-08-07T11:38:35.635Z,42.31
2022-08-07T11:39:59.080Z,42.58
2022-08-07T11:40:35.603Z,43.15
2022-08-07T11:42:00.406Z,43.52
2022-08-07T11:42:35.509Z,43.91
2022-08-07T11:43:54.567Z,43.91
2022-08-07T11:44:35.444Z,44.40
2022-08-07T11:45:36.427Z,44.96
2022-08-07T11:46:36.678Z,44.10
2022-08-07T11:47:39.099Z,44.69
2022-08-07T11:48:35.459Z,44.59
2022-08-07T11:50:18.544Z,44.10
2022-08-07T11:50:35.288Z,44.01
2022-08-07T11:51:41.172Z,44.30
2022-08-07T11:52:35.634Z,44.20
2022-08-07T11:53:35.528Z,44.20
2022-08-07T11:54:35.122Z,44.23
2022-08-07T11:56:25.167Z,43.62
2022-08-07T11:56:35.060Z,43.84
2022-08-07T11:57:58.021Z,43.54
2022-08-07T11:58:35.020Z,43.54
2022-08-07T12:00:12.268Z,43.15
2022-08-07T12:00:34.932Z,43.24
2022-08-07T12:01:59.083Z,43.63
2022-08-07T12:02:34.923Z,43.34
2022-08-07T12:03:45.606Z,43.54
2022-08-07T12:04:34.829Z,43.56
2022-08-07T12:05:41.435Z,42.88
2022-08-07T12:06:37.101Z,43.48
2022-08-07T12:07:38.964Z,42.11
2022-08-07T12:08:35.172Z,41.92
2022-08-07T12:09:34.648Z,42.41
2022-08-07T12:10:34.623Z,42.31
2022-08-07T12:11:34.580Z,42.02
2022-08-07T12:12:34.543Z,41.89
2022-08-07T12:13:35.641Z,41.99
2022-08-07T12:14:34.484Z,42.85
2022-08-07T12:15:46.467Z,43.32
2022-08-07T12:16:34.438Z,43.71
2022-08-07T12:17:34.425Z,43.62
2022-08-07T12:18:34.352Z,44.18
2022-08-07T12:19:35.428Z,44.28
2022-08-07T12:20:34.287Z,44.65
2022-08-07T12:22:37.338Z,44.74
2022-08-07T12:22:39.197Z,45.14
2022-08-07T12:24:05.272Z,45.04
2022-08-07T12:24:37.359Z,44.84
2022-08-07T12:26:21.571Z,44.06
2022-08-07T12:26:41.935Z,44.16
2022-08-07T12:28:05.801Z,44.74
2022-08-07T12:28:34.043Z,45.43
2022-08-07T12:29:38.662Z,44.74
2022-08-07T12:30:33.965Z,45.04
2022-08-07T12:31:52.408Z,45.26
2022-08-07T12:32:33.899Z,45.16
2022-08-07T12:33:55.834Z,44.28
2022-08-07T12:34:33.831Z,44.48
2022-08-07T12:35:36.256Z,45.65
2022-08-07T12:36:33.923Z,43.99
2022-08-07T12:38:09.355Z,44.09
2022-08-07T12:38:42.941Z,43.89
2022-08-07T12:39:42.504Z,44.35
2022-08-07T12:40:50.508Z,45.02
2022-08-07T12:41:49.612Z,45.02
2022-08-07T12:42:33.575Z,45.31
2022-08-07T12:44:01.487Z,45.80
2022-08-07T12:44:33.501Z,45.97
2022-08-07T12:45:33.485Z,46.73
2022-08-07T12:46:34.766Z,47.12
2022-08-07T12:47:33.727Z,47.02
2022-08-07T12:48:41.177Z,47.12
2022-08-07T12:49:48.518Z,46.83
2022-08-07T12:50:34.410Z,47.02
2022-08-07T12:51:51.481Z,46.73
2022-08-07T12:52:34.121Z,46.63
2022-08-07T12:54:02.908Z,46.83
2022-08-07T12:54:37.970Z,46.90
2022-08-07T12:55:40.651Z,47.58